sensor_id;sensor_type;location;lat;lon;timestamp;P1;durP1;ratioP1;P2;durP2;ratioP2
9052;SDS011;4561;47.450;7.516;2022-08-21T00:02:12;2.30;;;1.57;;
9052;SDS011;4561;47.450;7.516;2022-08-21T00:05:39;3.03;;;1.70;;
9052;SDS011;4561;47.450;7.516;2022-08-21T00:09:05;4.60;;;1.77;;
9052;SDS011;4561;47.450;7.516;2022-08-21T00:12:28;2.80;;;1.50;;
9052;SDS011;4561;47.450;7.516;2022-08-21T00:15:49;5.47;;;1.70;;
9052;SDS011;4561;47.450;7.516;2022-08-21T00:19:10;2.67;;;1.60;;
9052;SDS011;4561;47.450;7.516;2022-08-21T00:22:31;2.97;;;1.50;;
9052;SDS011;4561;47.450;7.516;2022-08-21T00:25:51;1.97;;;1.60;;
9052;SDS011;4561;47.450;7.516;2022-08-21T00:29:11;3.57;;;1.80;;
9052;SDS011;4561;47.450;7.516;2022-08-21T00:32:35;2.33;;;1.90;;
9052;SDS011;4561;47.450;7.516;2022-08-21T00:35:57;3.93;;;1.70;;
9052;SDS011;4561;47.450;7.516;2022-08-21T00:39:17;3.87;;;1.60;;
9052;SDS011;4561;47.450;7.516;2022-08-21T00:42:40;4.87;;;1.70;;
9052;SDS011;4561;47.450;7.516;2022-08-21T00:46:01;3.83;;;1.77;;
9052;SDS011;4561;47.450;7.516;2022-08-21T00:49:22;2.03;;;1.67;;
9052;SDS011;4561;47.450;7.516;2022-08-21T00:52:45;6.37;;;1.50;;
9052;SDS011;4561;47.450;7.516;2022-08-21T00:56:06;2.50;;;1.80;;
9052;SDS011;4561;47.450;7.516;2022-08-21T00:59:31;3.20;;;1.60;;
9052;SDS011;4561;47.450;7.516;2022-08-21T01:02:54;3.30;;;1.73;;
9052;SDS011;4561;47.450;7.516;2022-08-21T01:06:15;3.13;;;1.87;;
9052;SDS011;4561;47.450;7.516;2022-08-21T01:09:36;2.87;;;1.90;;
9052;SDS011;4561;47.450;7.516;2022-08-21T01:12:56;2.93;;;1.50;;
9052;SDS011;4561;47.450;7.516;2022-08-21T01:16:19;3.73;;;1.60;;
9052;SDS011;4561;47.450;7.516;2022-08-21T01:19:41;4.33;;;1.47;;
9052;SDS011;4561;47.450;7.516;2022-08-21T01:23:02;1.80;;;1.40;;
9052;SDS011;4561;47.450;7.516;2022-08-21T01:26:25;4.17;;;1.40;;
9052;SDS011;4561;47.450;7.516;2022-08-21T01:33:31;3.07;;;1.70;;
9052;SDS011;4561;47.450;7.516;2022-08-21T01:36:51;1.90;;;1.80;;
9052;SDS011;4561;47.450;7.516;2022-08-21T01:40:14;5.07;;;2.00;;
9052;SDS011;4561;47.450;7.516;2022-08-21T01:43:36;2.60;;;1.63;;
9052;SDS011;4561;47.450;7.516;2022-08-21T01:46:57;3.53;;;1.50;;
9052;SDS011;4561;47.450;7.516;2022-08-21T01:50:19;5.13;;;1.90;;
9052;SDS011;4561;47.450;7.516;2022-08-21T01:53:40;3.80;;;1.70;;
9052;SDS011;4561;47.450;7.516;2022-08-21T01:57:01;3.07;;;1.80;;
9052;SDS011;4561;47.450;7.516;2022-08-21T02:00:22;3.13;;;1.70;;
9052;SDS011;4561;47.450;7.516;2022-08-21T02:03:42;3.70;;;1.63;;
9052;SDS011;4561;47.450;7.516;2022-08-21T02:07:03;4.57;;;1.83;;
9052;SDS011;4561;47.450;7.516;2022-08-21T02:10:29;2.67;;;1.70;;
9052;SDS011;4561;47.450;7.516;2022-08-21T02:13:51;2.07;;;1.70;;
9052;SDS011;4561;47.450;7.516;2022-08-21T02:17:11;4.13;;;2.40;;
9052;SDS011;4561;47.450;7.516;2022-08-21T02:20:34;6.30;;;2.53;;
9052;SDS011;4561;47.450;7.516;2022-08-21T02:23:57;6.17;;;2.03;;
9052;SDS011;4561;47.450;7.516;2022-08-21T02:27:17;4.10;;;1.97;;
9052;SDS011;4561;47.450;7.516;2022-08-21T02:30:39;2.23;;;1.80;;
9052;SDS011;4561;47.450;7.516;2022-08-21T02:34:06;3.40;;;1.70;;
9052;SDS011;4561;47.450;7.516;2022-08-21T02:37:27;4.17;;;1.70;;
9052;SDS011;4561;47.450;7.516;2022-08-21T02:40:48;3.07;;;2.00;;
9052;SDS011;4561;47.450;7.516;2022-08-21T02:44:09;3.23;;;1.83;;
9052;SDS011;4561;47.450;7.516;2022-08-21T02:47:29;2.47;;;1.97;;
9052;SDS011;4561;47.450;7.516;2022-08-21T02:50:57;2.30;;;1.57;;
9052;SDS011;4561;47.450;7.516;2022-08-21T02:54:19;2.33;;;1.80;;
9052;SDS011;4561;47.450;7.516;2022-08-21T02:57:39;5.37;;;2.20;;
9052;SDS011;4561;47.450;7.516;2022-08-21T03:01:00;2.87;;;1.80;;
9052;SDS011;4561;47.450;7.516;2022-08-21T03:04:20;1.90;;;1.70;;
9052;SDS011;4561;47.450;7.516;2022-08-21T03:07:41;2.13;;;1.83;;
9052;SDS011;4561;47.450;7.516;2022-08-21T03:11:03;4.17;;;1.60;;
9052;SDS011;4561;47.450;7.516;2022-08-21T03:14:23;3.27;;;2.10;;
9052;SDS011;4561;47.450;7.516;2022-08-21T03:17:44;3.10;;;2.10;;
9052;SDS011;4561;47.450;7.516;2022-08-21T03:21:05;4.70;;;2.07;;
9052;SDS011;4561;47.450;7.516;2022-08-21T03:24:26;2.17;;;1.70;;
9052;SDS011;4561;47.450;7.516;2022-08-21T03:27:46;3.23;;;1.60;;
9052;SDS011;4561;47.450;7.516;2022-08-21T03:31:08;4.17;;;1.80;;
9052;SDS011;4561;47.450;7.516;2022-08-21T03:34:29;2.67;;;2.10;;
9052;SDS011;4561;47.450;7.516;2022-08-21T03:37:49;3.13;;;2.00;;
9052;SDS011;4561;47.450;7.516;2022-08-21T03:41:12;3.40;;;2.20;;
9052;SDS011;4561;47.450;7.516;2022-08-21T03:44:32;2.27;;;1.70;;
9052;SDS011;4561;47.450;7.516;2022-08-21T03:47:57;4.20;;;1.93;;
9052;SDS011;4561;47.450;7.516;2022-08-21T03:51:21;2.63;;;2.40;;
9052;SDS011;4561;47.450;7.516;2022-08-21T03:54:42;4.33;;;2.10;;
9052;SDS011;4561;47.450;7.516;2022-08-21T03:58:06;2.37;;;1.50;;
9052;SDS011;4561;47.450;7.516;2022-08-21T04:01:26;4.73;;;1.87;;
9052;SDS011;4561;47.450;7.516;2022-08-21T04:04:53;2.83;;;1.83;;
9052;SDS011;4561;47.450;7.516;2022-08-21T04:08:14;3.63;;;2.13;;
9052;SDS011;4561;47.450;7.516;2022-08-21T04:11:37;3.27;;;1.90;;
9052;SDS011;4561;47.450;7.516;2022-08-21T04:14:57;2.43;;;1.87;;
9052;SDS011;4561;47.450;7.516;2022-08-21T04:18:18;5.13;;;2.63;;
9052;SDS011;4561;47.450;7.516;2022-08-21T04:21:39;3.60;;;2.67;;
9052;SDS011;4561;47.450;7.516;2022-08-21T04:25:00;7.77;;;2.10;;
9052;SDS011;4561;47.450;7.516;2022-08-21T04:28:23;5.07;;;2.10;;
9052;SDS011;4561;47.450;7.516;2022-08-21T04:31:46;4.97;;;1.73;;
9052;SDS011;4561;47.450;7.516;2022-08-21T04:35:07;2.17;;;1.80;;
9052;SDS011;4561;47.450;7.516;2022-08-21T04:38:31;2.90;;;2.10;;
9052;SDS011;4561;47.450;7.516;2022-08-21T04:41:52;3.30;;;2.07;;
9052;SDS011;4561;47.450;7.516;2022-08-21T04:48:45;3.43;;;2.00;;
9052;SDS011;4561;47.450;7.516;2022-08-21T04:52:05;3.53;;;1.90;;
9052;SDS011;4561;47.450;7.516;2022-08-21T04:55:26;4.30;;;2.10;;
9052;SDS011;4561;47.450;7.516;2022-08-21T04:58:48;2.83;;;2.10;;
9052;SDS011;4561;47.450;7.516;2022-08-21T05:02:09;2.07;;;1.77;;
9052;SDS011;4561;47.450;7.516;2022-08-21T05:05:30;2.13;;;1.60;;
9052;SDS011;4561;47.450;7.516;2022-08-21T05:08:51;2.07;;;1.43;;
9052;SDS011;4561;47.450;7.516;2022-08-21T05:12:15;3.57;;;1.83;;
9052;SDS011;4561;47.450;7.516;2022-08-21T05:15:36;2.87;;;2.00;;
9052;SDS011;4561;47.450;7.516;2022-08-21T05:18:59;2.07;;;1.70;;
9052;SDS011;4561;47.450;7.516;2022-08-21T05:22:22;3.17;;;1.67;;
9052;SDS011;4561;47.450;7.516;2022-08-21T05:25:44;3.73;;;1.90;;
9052;SDS011;4561;47.450;7.516;2022-08-21T05:29:04;3.03;;;2.00;;
9052;SDS011;4561;47.450;7.516;2022-08-21T05:32:25;2.33;;;1.67;;
9052;SDS011;4561;47.450;7.516;2022-08-21T05:35:50;3.03;;;1.57;;
9052;SDS011;4561;47.450;7.516;2022-08-21T05:39:17;3.40;;;2.10;;
9052;SDS011;4561;47.450;7.516;2022-08-21T05:42:37;4.00;;;1.70;;
9052;SDS011;4561;47.450;7.516;2022-08-21T05:46:04;2.80;;;1.93;;
9052;SDS011;4561;47.450;7.516;2022-08-21T05:49:30;3.63;;;1.93;;
9052;SDS011;4561;47.450;7.516;2022-08-21T05:52:50;2.63;;;2.13;;
9052;SDS011;4561;47.450;7.516;2022-08-21T05:56:11;2.30;;;2.10;;
9052;SDS011;4561;47.450;7.516;2022-08-21T05:59:32;3.30;;;1.80;;
9052;SDS011;4561;47.450;7.516;2022-08-21T06:02:52;5.23;;;2.27;;
9052;SDS011;4561;47.450;7.516;2022-08-21T06:06:15;3.40;;;1.87;;
9052;SDS011;4561;47.450;7.516;2022-08-21T06:09:38;4.60;;;2.20;;
9052;SDS011;4561;47.450;7.516;2022-08-21T06:13:00;2.80;;;2.40;;
9052;SDS011;4561;47.450;7.516;2022-08-21T06:16:24;5.03;;;1.90;;
9052;SDS011;4561;47.450;7.516;2022-08-21T06:19:50;3.63;;;2.00;;
9052;SDS011;4561;47.450;7.516;2022-08-21T06:23:12;2.63;;;2.10;;
9052;SDS011;4561;47.450;7.516;2022-08-21T06:26:32;4.27;;;2.10;;
9052;SDS011;4561;47.450;7.516;2022-08-21T06:29:53;2.07;;;1.80;;
9052;SDS011;4561;47.450;7.516;2022-08-21T06:33:13;5.37;;;2.10;;
9052;SDS011;4561;47.450;7.516;2022-08-21T06:36:37;4.63;;;2.10;;
9052;SDS011;4561;47.450;7.516;2022-08-21T06:39:57;3.07;;;2.17;;
9052;SDS011;4561;47.450;7.516;2022-08-21T06:43:17;3.90;;;2.03;;
9052;SDS011;4561;47.450;7.516;2022-08-21T06:46:38;4.53;;;2.10;;
9052;SDS011;4561;47.450;7.516;2022-08-21T06:49:59;2.40;;;2.13;;
9052;SDS011;4561;47.450;7.516;2022-08-21T06:53:22;5.27;;;2.10;;
9052;SDS011;4561;47.450;7.516;2022-08-21T06:56:42;3.33;;;1.70;;
9052;SDS011;4561;47.450;7.516;2022-08-21T07:00:04;3.43;;;1.90;;
9052;SDS011;4561;47.450;7.516;2022-08-21T07:03:27;2.43;;;2.00;;
9052;SDS011;4561;47.450;7.516;2022-08-21T07:06:58;2.50;;;2.07;;
9052;SDS011;4561;47.450;7.516;2022-08-21T07:10:18;2.73;;;1.80;;
9052;SDS011;4561;47.450;7.516;2022-08-21T07:13:40;5.03;;;1.83;;
9052;SDS011;4561;47.450;7.516;2022-08-21T07:17:01;3.93;;;1.63;;
9052;SDS011;4561;47.450;7.516;2022-08-21T07:20:24;2.73;;;1.80;;
9052;SDS011;4561;47.450;7.516;2022-08-21T07:23:48;2.60;;;1.90;;
9052;SDS011;4561;47.450;7.516;2022-08-21T07:27:10;2.90;;;2.17;;
9052;SDS011;4561;47.450;7.516;2022-08-21T07:30:31;5.13;;;2.10;;
9052;SDS011;4561;47.450;7.516;2022-08-21T07:33:54;6.30;;;2.23;;
9052;SDS011;4561;47.450;7.516;2022-08-21T07:37:17;6.47;;;1.85;;
9052;SDS011;4561;47.450;7.516;2022-08-21T07:40:38;4.00;;;1.60;;
9052;SDS011;4561;47.450;7.516;2022-08-21T07:43:59;3.10;;;2.00;;
9052;SDS011;4561;47.450;7.516;2022-08-21T07:47:19;3.03;;;2.10;;
9052;SDS011;4561;47.450;7.516;2022-08-21T07:50:40;2.97;;;1.55;;
9052;SDS011;4561;47.450;7.516;2022-08-21T07:54:03;3.58;;;1.88;;
9052;SDS011;4561;47.450;7.516;2022-08-21T07:57:26;3.20;;;1.88;;
9052;SDS011;4561;47.450;7.516;2022-08-21T08:00:46;4.15;;;1.58;;
9052;SDS011;4561;47.450;7.516;2022-08-21T08:04:06;2.00;;;1.40;;
9052;SDS011;4561;47.450;7.516;2022-08-21T08:07:30;4.00;;;1.58;;
9052;SDS011;4561;47.450;7.516;2022-08-21T08:10:53;2.20;;;1.83;;
9052;SDS011;4561;47.450;7.516;2022-08-21T08:14:14;1.45;;;1.30;;
9052;SDS011;4561;47.450;7.516;2022-08-21T08:17:35;2.70;;;1.42;;
9052;SDS011;4561;47.450;7.516;2022-08-21T08:21:01;2.45;;;1.77;;
9052;SDS011;4561;47.450;7.516;2022-08-21T08:24:21;3.75;;;1.88;;
9052;SDS011;4561;47.450;7.516;2022-08-21T08:27:42;3.10;;;1.85;;
9052;SDS011;4561;47.450;7.516;2022-08-21T08:31:02;2.13;;;1.60;;
9052;SDS011;4561;47.450;7.516;2022-08-21T08:34:23;3.60;;;1.77;;
9052;SDS011;4561;47.450;7.516;2022-08-21T08:37:43;3.47;;;1.55;;
9052;SDS011;4561;47.450;7.516;2022-08-21T08:44:41;3.22;;;1.70;;
9052;SDS011;4561;47.450;7.516;2022-08-21T08:48:03;2.13;;;1.75;;
9052;SDS011;4561;47.450;7.516;2022-08-21T08:55:20;3.90;;;1.50;;
9052;SDS011;4561;47.450;7.516;2022-08-21T08:58:42;4.53;;;1.40;;
9052;SDS011;4561;47.450;7.516;2022-08-21T09:02:07;1.73;;;1.50;;
9052;SDS011;4561;47.450;7.516;2022-08-21T09:09:19;2.35;;;1.50;;
9052;SDS011;4561;47.450;7.516;2022-08-21T09:12:47;4.45;;;1.40;;
9052;SDS011;4561;47.450;7.516;2022-08-21T09:16:22;1.45;;;1.35;;
9052;SDS011;4561;47.450;7.516;2022-08-21T09:20:03;3.45;;;1.50;;
9052;SDS011;4561;47.450;7.516;2022-08-21T09:23:44;1.30;;;1.20;;
9052;SDS011;4561;47.450;7.516;2022-08-21T09:27:11;1.95;;;1.30;;
9052;SDS011;4561;47.450;7.516;2022-08-21T09:30:33;2.47;;;1.38;;
9052;SDS011;4561;47.450;7.516;2022-08-21T09:33:59;1.27;;;1.10;;
9052;SDS011;4561;47.450;7.516;2022-08-21T09:37:21;1.98;;;1.10;;
9052;SDS011;4561;47.450;7.516;2022-08-21T09:40:45;4.55;;;1.20;;
9052;SDS011;4561;47.450;7.516;2022-08-21T09:44:07;3.05;;;1.40;;
9052;SDS011;4561;47.450;7.516;2022-08-21T09:47:28;3.05;;;1.30;;
9052;SDS011;4561;47.450;7.516;2022-08-21T09:50:50;4.53;;;1.25;;
9052;SDS011;4561;47.450;7.516;2022-08-21T09:54:15;1.60;;;1.50;;
9052;SDS011;4561;47.450;7.516;2022-08-21T09:57:43;2.47;;;1.35;;
9052;SDS011;4561;47.450;7.516;2022-08-21T10:01:06;2.88;;;1.38;;
9052;SDS011;4561;47.450;7.516;2022-08-21T10:04:43;1.95;;;1.50;;
9052;SDS011;4561;47.450;7.516;2022-08-21T10:08:20;1.50;;;1.40;;
9052;SDS011;4561;47.450;7.516;2022-08-21T10:11:43;1.98;;;1.40;;
9052;SDS011;4561;47.450;7.516;2022-08-21T10:22:49;2.47;;;1.10;;
9052;SDS011;4561;47.450;7.516;2022-08-21T10:30:36;0.85;;;0.80;;
9052;SDS011;4561;47.450;7.516;2022-08-21T10:45:44;0.90;;;0.80;;
9052;SDS011;4561;47.450;7.516;2022-08-21T10:56:00;1.52;;;1.00;;
9052;SDS011;4561;47.450;7.516;2022-08-21T10:59:39;2.33;;;1.30;;
9052;SDS011;4561;47.450;7.516;2022-08-21T11:03:07;1.83;;;1.20;;
9052;SDS011;4561;47.450;7.516;2022-08-21T11:06:31;2.20;;;1.30;;
9052;SDS011;4561;47.450;7.516;2022-08-21T11:09:53;1.17;;;1.10;;
9052;SDS011;4561;47.450;7.516;2022-08-21T11:13:18;3.22;;;1.38;;
9052;SDS011;4561;47.450;7.516;2022-08-21T11:20:28;1.42;;;1.20;;
9052;SDS011;4561;47.450;7.516;2022-08-21T11:27:42;1.05;;;0.90;;
9052;SDS011;4561;47.450;7.516;2022-08-21T11:52:45;0.82;;;0.80;;
9052;SDS011;4561;47.450;7.516;2022-08-21T11:59:34;1.42;;;1.05;;
9052;SDS011;4561;47.450;7.516;2022-08-21T12:03:07;1.23;;;0.80;;
9052;SDS011;4561;47.450;7.516;2022-08-21T12:06:32;1.60;;;1.00;;
9052;SDS011;4561;47.450;7.516;2022-08-21T12:10:00;1.50;;;1.05;;
9052;SDS011;4561;47.450;7.516;2022-08-21T12:13:22;2.58;;;0.80;;
9052;SDS011;4561;47.450;7.516;2022-08-21T12:16:46;0.95;;;0.82;;
9052;SDS011;4561;47.450;7.516;2022-08-21T12:20:22;0.70;;;0.70;;
9052;SDS011;4561;47.450;7.516;2022-08-21T12:24:00;1.13;;;0.95;;
9052;SDS011;4561;47.450;7.516;2022-08-21T12:27:52;1.05;;;0.93;;
9052;SDS011;4561;47.450;7.516;2022-08-21T12:31:21;0.77;;;0.73;;
9052;SDS011;4561;47.450;7.516;2022-08-21T12:34:46;1.15;;;0.80;;
9052;SDS011;4561;47.450;7.516;2022-08-21T12:38:43;1.35;;;0.80;;
9052;SDS011;4561;47.450;7.516;2022-08-21T12:42:39;3.53;;;0.90;;
9052;SDS011;4561;47.450;7.516;2022-08-21T12:46:02;1.40;;;0.80;;
9052;SDS011;4561;47.450;7.516;2022-08-21T12:49:28;1.38;;;1.00;;
9052;SDS011;4561;47.450;7.516;2022-08-21T12:56:27;2.60;;;1.25;;
9052;SDS011;4561;47.450;7.516;2022-08-21T13:00:00;0.80;;;0.80;;
9052;SDS011;4561;47.450;7.516;2022-08-21T13:03:23;1.00;;;0.90;;
9052;SDS011;4561;47.450;7.516;2022-08-21T13:06:44;0.82;;;0.60;;
9052;SDS011;4561;47.450;7.516;2022-08-21T13:10:16;1.10;;;1.00;;
9052;SDS011;4561;47.450;7.516;2022-08-21T13:13:42;1.40;;;0.80;;
9052;SDS011;4561;47.450;7.516;2022-08-21T13:17:04;1.90;;;0.88;;
9052;SDS011;4561;47.450;7.516;2022-08-21T13:20:28;1.00;;;0.80;;
9052;SDS011;4561;47.450;7.516;2022-08-21T13:27:41;3.20;;;1.17;;
9052;SDS011;4561;47.450;7.516;2022-08-21T13:31:05;1.48;;;0.93;;
9052;SDS011;4561;47.450;7.516;2022-08-21T13:34:30;1.83;;;0.82;;
9052;SDS011;4561;47.450;7.516;2022-08-21T13:37:52;2.05;;;1.00;;
9052;SDS011;4561;47.450;7.516;2022-08-21T13:41:20;1.80;;;0.80;;
9052;SDS011;4561;47.450;7.516;2022-08-21T13:44:47;0.85;;;0.85;;
9052;SDS011;4561;47.450;7.516;2022-08-21T13:48:08;1.05;;;0.80;;
9052;SDS011;4561;47.450;7.516;2022-08-21T13:51:31;1.23;;;1.00;;
9052;SDS011;4561;47.450;7.516;2022-08-21T13:58:23;0.70;;;0.70;;
9052;SDS011;4561;47.450;7.516;2022-08-21T14:01:49;1.58;;;0.90;;
9052;SDS011;4561;47.450;7.516;2022-08-21T14:05:37;1.35;;;0.90;;
9052;SDS011;4561;47.450;7.516;2022-08-21T14:09:00;1.85;;;0.95;;
9052;SDS011;4561;47.450;7.516;2022-08-21T14:13:19;2.60;;;1.60;;
9052;SDS011;4561;47.450;7.516;2022-08-21T14:16:19;2.20;;;2.00;;
9052;SDS011;4561;47.450;7.516;2022-08-21T14:19:43;1.48;;;1.38;;
9052;SDS011;4561;47.450;7.516;2022-08-21T14:23:04;2.20;;;1.40;;
9052;SDS011;4561;47.450;7.516;2022-08-21T14:26:28;1.95;;;0.90;;
9052;SDS011;4561;47.450;7.516;2022-08-21T14:29:50;2.08;;;0.93;;
9052;SDS011;4561;47.450;7.516;2022-08-21T14:33:28;1.10;;;1.00;;
9052;SDS011;4561;47.450;7.516;2022-08-21T14:36:51;1.00;;;0.90;;
9052;SDS011;4561;47.450;7.516;2022-08-21T14:40:11;2.53;;;1.23;;
9052;SDS011;4561;47.450;7.516;2022-08-21T14:43:32;1.20;;;1.00;;
9052;SDS011;4561;47.450;7.516;2022-08-21T14:46:53;1.10;;;1.00;;
9052;SDS011;4561;47.450;7.516;2022-08-21T14:50:13;0.85;;;0.85;;
9052;SDS011;4561;47.450;7.516;2022-08-21T14:53:37;2.15;;;0.93;;
9052;SDS011;4561;47.450;7.516;2022-08-21T14:56:58;2.60;;;1.13;;
9052;SDS011;4561;47.450;7.516;2022-08-21T15:00:22;1.00;;;0.90;;
9052;SDS011;4561;47.450;7.516;2022-08-21T15:03:44;2.67;;;1.08;;
9052;SDS011;4561;47.450;7.516;2022-08-21T15:07:05;0.95;;;0.77;;
9052;SDS011;4561;47.450;7.516;2022-08-21T15:10:26;1.33;;;1.13;;
9052;SDS011;4561;47.450;7.516;2022-08-21T15:13:47;2.92;;;1.10;;
9052;SDS011;4561;47.450;7.516;2022-08-21T15:17:13;2.55;;;0.98;;
9052;SDS011;4561;47.450;7.516;2022-08-21T15:20:34;1.00;;;0.90;;
9052;SDS011;4561;47.450;7.516;2022-08-21T15:23:55;0.85;;;0.82;;
9052;SDS011;4561;47.450;7.516;2022-08-21T15:27:16;2.88;;;0.95;;
9052;SDS011;4561;47.450;7.516;2022-08-21T15:30:37;2.25;;;0.90;;
9052;SDS011;4561;47.450;7.516;2022-08-21T15:34:01;0.77;;;0.68;;
9052;SDS011;4561;47.450;7.516;2022-08-21T15:37:22;4.97;;;0.80;;
9052;SDS011;4561;47.450;7.516;2022-08-21T15:40:45;1.10;;;0.90;;
9052;SDS011;4561;47.450;7.516;2022-08-21T15:44:06;1.50;;;0.90;;
9052;SDS011;4561;47.450;7.516;2022-08-21T15:47:34;0.90;;;0.90;;
9052;SDS011;4561;47.450;7.516;2022-08-21T15:50:56;1.95;;;1.08;;
9052;SDS011;4561;47.450;7.516;2022-08-21T15:54:16;1.65;;;0.95;;
9052;SDS011;4561;47.450;7.516;2022-08-21T15:57:37;1.00;;;0.90;;
9052;SDS011;4561;47.450;7.516;2022-08-21T16:01:03;2.30;;;0.90;;
9052;SDS011;4561;47.450;7.516;2022-08-21T16:04:24;1.33;;;0.90;;
9052;SDS011;4561;47.450;7.516;2022-08-21T16:07:49;1.20;;;0.93;;
9052;SDS011;4561;47.450;7.516;2022-08-21T16:11:10;0.68;;;0.68;;
9052;SDS011;4561;47.450;7.516;2022-08-21T16:14:32;0.93;;;0.82;;
9052;SDS011;4561;47.450;7.516;2022-08-21T16:17:54;1.17;;;0.80;;
9052;SDS011;4561;47.450;7.516;2022-08-21T16:21:15;3.00;;;1.00;;
9052;SDS011;4561;47.450;7.516;2022-08-21T16:24:39;1.00;;;0.82;;
9052;SDS011;4561;47.450;7.516;2022-08-21T16:28:00;1.30;;;0.90;;
9052;SDS011;4561;47.450;7.516;2022-08-21T16:31:21;1.00;;;1.00;;
9052;SDS011;4561;47.450;7.516;2022-08-21T16:34:47;1.33;;;0.90;;
9052;SDS011;4561;47.450;7.516;2022-08-21T16:38:08;0.70;;;0.70;;
9052;SDS011;4561;47.450;7.516;2022-08-21T16:41:33;0.93;;;0.80;;
9052;SDS011;4561;47.450;7.516;2022-08-21T16:44:54;0.80;;;0.70;;
9052;SDS011;4561;47.450;7.516;2022-08-21T16:48:15;1.73;;;0.85;;
9052;SDS011;4561;47.450;7.516;2022-08-21T16:51:37;1.03;;;0.93;;
9052;SDS011;4561;47.450;7.516;2022-08-21T16:54:58;1.40;;;0.90;;
9052;SDS011;4561;47.450;7.516;2022-08-21T16:58:22;3.00;;;1.10;;
9052;SDS011;4561;47.450;7.516;2022-08-21T17:01:47;5.38;;;1.05;;
9052;SDS011;4561;47.450;7.516;2022-08-21T17:05:07;1.65;;;0.85;;
9052;SDS011;4561;47.450;7.516;2022-08-21T17:08:30;2.47;;;1.00;;
9052;SDS011;4561;47.450;7.516;2022-08-21T17:11:51;0.88;;;0.80;;
9052;SDS011;4561;47.450;7.516;2022-08-21T17:15:14;1.90;;;0.80;;
9052;SDS011;4561;47.450;7.516;2022-08-21T17:18:37;0.73;;;0.73;;
9052;SDS011;4561;47.450;7.516;2022-08-21T17:21:58;1.10;;;1.00;;
9052;SDS011;4561;47.450;7.516;2022-08-21T17:25:19;0.80;;;0.80;;
9052;SDS011;4561;47.450;7.516;2022-08-21T17:28:42;1.80;;;1.00;;
9052;SDS011;4561;47.450;7.516;2022-08-21T17:32:08;2.60;;;0.80;;
9052;SDS011;4561;47.450;7.516;2022-08-21T17:35:30;2.20;;;0.70;;
9052;SDS011;4561;47.450;7.516;2022-08-21T17:38:50;2.73;;;1.00;;
9052;SDS011;4561;47.450;7.516;2022-08-21T17:42:11;0.93;;;0.70;;
9052;SDS011;4561;47.450;7.516;2022-08-21T17:45:32;1.33;;;0.90;;
9052;SDS011;4561;47.450;7.516;2022-08-21T17:48:58;2.70;;;1.00;;
9052;SDS011;4561;47.450;7.516;2022-08-21T17:52:19;2.17;;;0.87;;
9052;SDS011;4561;47.450;7.516;2022-08-21T17:55:39;1.27;;;0.90;;
9052;SDS011;4561;47.450;7.516;2022-08-21T17:59:01;0.73;;;0.73;;
9052;SDS011;4561;47.450;7.516;2022-08-21T18:02:23;1.33;;;0.80;;
9052;SDS011;4561;47.450;7.516;2022-08-21T18:05:44;1.47;;;0.80;;
9052;SDS011;4561;47.450;7.516;2022-08-21T18:09:06;0.60;;;0.60;;
9052;SDS011;4561;47.450;7.516;2022-08-21T18:12:27;0.90;;;0.77;;
9052;SDS011;4561;47.450;7.516;2022-08-21T18:15:54;1.17;;;0.73;;
9052;SDS011;4561;47.450;7.516;2022-08-21T18:19:15;1.23;;;0.80;;
9052;SDS011;4561;47.450;7.516;2022-08-21T18:22:40;1.00;;;0.60;;
9052;SDS011;4561;47.450;7.516;2022-08-21T18:26:01;1.60;;;0.80;;
9052;SDS011;4561;47.450;7.516;2022-08-21T18:29:21;1.30;;;0.80;;
9052;SDS011;4561;47.450;7.516;2022-08-21T18:32:42;1.23;;;0.87;;
9052;SDS011;4561;47.450;7.516;2022-08-21T18:36:03;15.17;;;13.87;;
9052;SDS011;4561;47.450;7.516;2022-08-21T18:39:24;16.70;;;13.57;;
9052;SDS011;4561;47.450;7.516;2022-08-21T18:42:47;21.93;;;19.70;;
9052;SDS011;4561;47.450;7.516;2022-08-21T18:46:08;10.47;;;9.40;;
9052;SDS011;4561;47.450;7.516;2022-08-21T18:49:28;6.60;;;6.00;;
9052;SDS011;4561;47.450;7.516;2022-08-21T18:52:49;6.03;;;3.40;;
9052;SDS011;4561;47.450;7.516;2022-08-21T18:56:10;2.53;;;2.17;;
9052;SDS011;4561;47.450;7.516;2022-08-21T18:59:31;3.63;;;1.70;;
9052;SDS011;4561;47.450;7.516;2022-08-21T19:02:52;3.23;;;2.00;;
9052;SDS011;4561;47.450;7.516;2022-08-21T19:06:12;3.20;;;2.90;;
9052;SDS011;4561;47.450;7.516;2022-08-21T19:09:33;1.63;;;1.33;;
9052;SDS011;4561;47.450;7.516;2022-08-21T19:12:53;1.53;;;1.00;;
9052;SDS011;4561;47.450;7.516;2022-08-21T19:16:17;2.17;;;0.90;;
9052;SDS011;4561;47.450;7.516;2022-08-21T19:19:38;1.10;;;1.00;;
9052;SDS011;4561;47.450;7.516;2022-08-21T19:22:59;2.87;;;1.50;;
9052;SDS011;4561;47.450;7.516;2022-08-21T19:26:20;2.50;;;1.27;;
9052;SDS011;4561;47.450;7.516;2022-08-21T19:29:44;1.30;;;1.00;;
9052;SDS011;4561;47.450;7.516;2022-08-21T19:33:05;1.07;;;0.93;;
9052;SDS011;4561;47.450;7.516;2022-08-21T19:36:25;0.80;;;0.80;;
9052;SDS011;4561;47.450;7.516;2022-08-21T19:39:49;2.30;;;1.50;;
9052;SDS011;4561;47.450;7.516;2022-08-21T19:43:09;1.13;;;1.00;;
9052;SDS011;4561;47.450;7.516;2022-08-21T19:46:35;2.80;;;0.93;;
9052;SDS011;4561;47.450;7.516;2022-08-21T19:49:57;1.27;;;0.80;;
9052;SDS011;4561;47.450;7.516;2022-08-21T19:53:18;1.10;;;1.00;;
9052;SDS011;4561;47.450;7.516;2022-08-21T19:56:39;2.00;;;0.93;;
9052;SDS011;4561;47.450;7.516;2022-08-21T19:59:59;2.30;;;0.80;;
9052;SDS011;4561;47.450;7.516;2022-08-21T20:03:20;1.10;;;0.80;;
9052;SDS011;4561;47.450;7.516;2022-08-21T20:06:41;4.43;;;0.90;;
9052;SDS011;4561;47.450;7.516;2022-08-21T20:10:02;2.60;;;1.10;;
9052;SDS011;4561;47.450;7.516;2022-08-21T20:13:24;4.33;;;1.20;;
9052;SDS011;4561;47.450;7.516;2022-08-21T20:16:46;1.27;;;0.90;;
9052;SDS011;4561;47.450;7.516;2022-08-21T20:20:07;2.47;;;1.53;;
9052;SDS011;4561;47.450;7.516;2022-08-21T20:23:28;2.10;;;1.33;;
9052;SDS011;4561;47.450;7.516;2022-08-21T20:26:50;1.47;;;1.23;;
9052;SDS011;4561;47.450;7.516;2022-08-21T20:30:11;2.83;;;1.30;;
9052;SDS011;4561;47.450;7.516;2022-08-21T20:33:32;3.37;;;1.50;;
9052;SDS011;4561;47.450;7.516;2022-08-21T20:36:52;1.77;;;1.40;;
9052;SDS011;4561;47.450;7.516;2022-08-21T20:40:13;2.53;;;1.67;;
9052;SDS011;4561;47.450;7.516;2022-08-21T20:43:36;2.87;;;1.37;;
9052;SDS011;4561;47.450;7.516;2022-08-21T20:46:58;3.67;;;1.30;;
9052;SDS011;4561;47.450;7.516;2022-08-21T20:50:20;4.63;;;1.47;;
9052;SDS011;4561;47.450;7.516;2022-08-21T20:53:53;4.57;;;1.40;;
9052;SDS011;4561;47.450;7.516;2022-08-21T21:00:57;2.60;;;1.40;;
9052;SDS011;4561;47.450;7.516;2022-08-21T21:04:42;3.17;;;1.57;;
9052;SDS011;4561;47.450;7.516;2022-08-21T21:11:28;4.30;;;1.60;;
9052;SDS011;4561;47.450;7.516;2022-08-21T21:14:51;2.47;;;1.67;;
9052;SDS011;4561;47.450;7.516;2022-08-21T21:18:31;2.00;;;1.50;;
9052;SDS011;4561;47.450;7.516;2022-08-21T21:21:59;3.00;;;1.50;;
9052;SDS011;4561;47.450;7.516;2022-08-21T21:25:36;3.90;;;1.50;;
9052;SDS011;4561;47.450;7.516;2022-08-21T21:32:32;2.50;;;1.50;;
9052;SDS011;4561;47.450;7.516;2022-08-21T21:35:53;3.17;;;1.63;;
9052;SDS011;4561;47.450;7.516;2022-08-21T22:00:46;2.90;;;1.47;;
9052;SDS011;4561;47.450;7.516;2022-08-21T22:07:44;3.77;;;1.83;;
9052;SDS011;4561;47.450;7.516;2022-08-21T22:11:20;3.30;;;1.43;;
9052;SDS011;4561;47.450;7.516;2022-08-21T22:15:00;5.23;;;1.87;;
9052;SDS011;4561;47.450;7.516;2022-08-21T22:18:24;3.60;;;1.73;;
9052;SDS011;4561;47.450;7.516;2022-08-21T22:21:54;3.33;;;2.20;;
9052;SDS011;4561;47.450;7.516;2022-08-21T22:25:28;5.33;;;2.00;;
9052;SDS011;4561;47.450;7.516;2022-08-21T22:28:55;5.07;;;1.70;;
9052;SDS011;4561;47.450;7.516;2022-08-21T22:32:23;4.10;;;1.87;;
9052;SDS011;4561;47.450;7.516;2022-08-21T22:36:01;4.23;;;1.60;;
9052;SDS011;4561;47.450;7.516;2022-08-21T22:39:38;6.67;;;1.83;;
9052;SDS011;4561;47.450;7.516;2022-08-21T22:43:05;2.17;;;1.70;;
9052;SDS011;4561;47.450;7.516;2022-08-21T22:46:28;4.00;;;1.83;;
9052;SDS011;4561;47.450;7.516;2022-08-21T22:49:51;4.03;;;1.60;;
9052;SDS011;4561;47.450;7.516;2022-08-21T22:53:19;3.40;;;1.90;;
9052;SDS011;4561;47.450;7.516;2022-08-21T22:56:43;3.53;;;2.00;;
9052;SDS011;4561;47.450;7.516;2022-08-21T23:00:12;9.30;;;2.20;;
9052;SDS011;4561;47.450;7.516;2022-08-21T23:07:30;3.67;;;1.97;;
9052;SDS011;4561;47.450;7.516;2022-08-21T23:10:57;3.87;;;1.77;;
9052;SDS011;4561;47.450;7.516;2022-08-21T23:14:22;4.00;;;1.70;;
9052;SDS011;4561;47.450;7.516;2022-08-21T23:17:53;3.37;;;2.07;;